Terminal Aerodrome Forecast
Issued by NWS

Home | Current Version | Previous Version | Text Only | Print | Product List | Glossary Off
Versions: 1 2 3 4 5 6 7 8 9 10 11 12 13 14 15 16 17 18 19 20 21 22 23 24

655
FTUS45 KGGW 212321
TAFOLF
TAF
KOLF 212321Z 2200/2224 34022G31KT 2SM -SHRA OVC040
     FM220100 33013KT P6SM VCSH BKN080
     FM221000 31008KT P6SM VCSH BKN045=

USA.gov is the U.S. government's official web portal to all federal, state and local government web resources and services.